sensor_id;sensor_type;location;lat;lon;timestamp;pressure;altitude;pressure_sealevel;temperature;humidity
53340;BME280;46212;50.258;19.062;2023-02-22T00:01:14;98502.41;;;4.54;83.38
53340;BME280;46212;50.258;19.062;2023-02-22T00:03:58;98475.78;;;4.35;84.22
53340;BME280;46212;50.258;19.062;2023-02-22T00:06:23;98504.50;;;4.47;84.26
53340;BME280;46212;50.258;19.062;2023-02-22T00:08:49;98504.13;;;4.45;84.42
53340;BME280;46212;50.258;19.062;2023-02-22T00:11:17;98477.78;;;4.54;83.94
53340;BME280;46212;50.258;19.062;2023-02-22T00:13:43;98499.94;;;4.60;84.29
53340;BME280;46212;50.258;19.062;2023-02-22T00:16:13;98479.00;;;4.53;83.89
53340;BME280;46212;50.258;19.062;2023-02-22T00:18:38;98497.25;;;4.37;84.97
53340;BME280;46212;50.258;19.062;2023-02-22T00:21:05;98474.72;;;4.29;85.06
53340;BME280;46212;50.258;19.062;2023-02-22T00:23:35;98492.34;;;4.28;85.54
53340;BME280;46212;50.258;19.062;2023-02-22T00:26:05;98490.00;;;4.26;86.01
53340;BME280;46212;50.258;19.062;2023-02-22T00:28:30;98487.50;;;4.12;86.54
53340;BME280;46212;50.258;19.062;2023-02-22T00:30:56;98497.78;;;4.05;87.15
53340;BME280;46212;50.258;19.062;2023-02-22T00:33:24;98472.16;;;3.95;87.38
53340;BME280;46212;50.258;19.062;2023-02-22T00:35:49;98477.97;;;3.97;87.16
53340;BME280;46212;50.258;19.062;2023-02-22T00:38:17;98500.56;;;4.01;87.35
53340;BME280;46212;50.258;19.062;2023-02-22T00:40:42;98502.13;;;4.02;87.43
53340;BME280;46212;50.258;19.062;2023-02-22T00:43:09;98490.44;;;3.75;87.84
53340;BME280;46212;50.258;19.062;2023-02-22T00:45:35;98504.59;;;3.93;87.75
53340;BME280;46212;50.258;19.062;2023-02-22T00:48:02;98507.75;;;3.92;87.85
53340;BME280;46212;50.258;19.062;2023-02-22T00:50:29;98503.78;;;3.96;87.50
53340;BME280;46212;50.258;19.062;2023-02-22T00:52:56;98499.84;;;3.97;87.42
53340;BME280;46212;50.258;19.062;2023-02-22T00:55:24;98501.94;;;3.90;87.82
53340;BME280;46212;50.258;19.062;2023-02-22T00:57:51;98502.03;;;3.83;88.16
53340;BME280;46212;50.258;19.062;2023-02-22T01:00:20;98495.84;;;3.79;88.24
53340;BME280;46212;50.258;19.062;2023-02-22T01:02:46;98484.50;;;3.80;87.95
53340;BME280;46212;50.258;19.062;2023-02-22T01:05:16;98503.25;;;3.78;88.48
53340;BME280;46212;50.258;19.062;2023-02-22T01:07:42;98499.88;;;3.70;88.79
53340;BME280;46212;50.258;19.062;2023-02-22T01:10:08;98506.97;;;3.64;89.49
53340;BME280;46212;50.258;19.062;2023-02-22T01:12:35;98495.28;;;3.64;89.05
53340;BME280;46212;50.258;19.062;2023-02-22T01:15:02;98509.72;;;3.64;89.04
53340;BME280;46212;50.258;19.062;2023-02-22T01:17:28;98509.28;;;3.66;88.81
53340;BME280;46212;50.258;19.062;2023-02-22T01:19:54;98515.19;;;3.64;89.11
53340;BME280;46212;50.258;19.062;2023-02-22T01:22:20;98512.75;;;3.70;88.64
53340;BME280;46212;50.258;19.062;2023-02-22T01:24:49;98505.81;;;3.62;88.78
53340;BME280;46212;50.258;19.062;2023-02-22T01:27:16;98514.13;;;3.55;89.14
53340;BME280;46212;50.258;19.062;2023-02-22T01:29:42;98503.34;;;3.44;89.59
53340;BME280;46212;50.258;19.062;2023-02-22T01:32:08;98505.34;;;3.40;89.98
53340;BME280;46212;50.258;19.062;2023-02-22T01:34:33;98485.09;;;3.38;89.99
53340;BME280;46212;50.258;19.062;2023-02-22T01:37:00;98502.88;;;3.49;89.82
53340;BME280;46212;50.258;19.062;2023-02-22T01:39:28;98487.53;;;3.32;89.79
53340;BME280;46212;50.258;19.062;2023-02-22T01:41:53;98503.91;;;3.32;90.25
53340;BME280;46212;50.258;19.062;2023-02-22T01:44:26;98482.44;;;3.04;90.79
53340;BME280;46212;50.258;19.062;2023-02-22T01:46:53;98480.16;;;2.99;91.02
53340;BME280;46212;50.258;19.062;2023-02-22T01:49:18;98500.53;;;3.21;91.32
53340;BME280;46212;50.258;19.062;2023-02-22T01:51:47;98504.97;;;3.08;91.28
53340;BME280;46212;50.258;19.062;2023-02-22T01:54:23;98508.13;;;3.06;91.61
53340;BME280;46212;50.258;19.062;2023-02-22T01:59:21;98504.16;;;3.11;91.05
53340;BME280;46212;50.258;19.062;2023-02-22T02:01:46;98505.19;;;2.90;91.42
53340;BME280;46212;50.258;19.062;2023-02-22T02:04:18;98496.66;;;2.88;91.98
53340;BME280;46212;50.258;19.062;2023-02-22T02:06:46;98494.75;;;2.85;92.42
53340;BME280;46212;50.258;19.062;2023-02-22T02:12:32;98504.06;;;2.88;92.38
53340;BME280;46212;50.258;19.062;2023-02-22T02:15:31;98493.28;;;2.74;92.91
53340;BME280;46212;50.258;19.062;2023-02-22T02:17:59;98494.09;;;2.71;93.40
53340;BME280;46212;50.258;19.062;2023-02-22T02:20:40;98499.13;;;2.76;93.48
53340;BME280;46212;50.258;19.062;2023-02-22T02:40:18;98506.84;;;2.81;93.79
53340;BME280;46212;50.258;19.062;2023-02-22T02:43:00;98508.81;;;2.80;93.46
53340;BME280;46212;50.258;19.062;2023-02-22T02:45:38;98506.09;;;2.77;93.63
53340;BME280;46212;50.258;19.062;2023-02-22T02:48:08;98497.28;;;2.65;93.36
53340;BME280;46212;50.258;19.062;2023-02-22T02:50:41;98505.97;;;2.53;93.97
53340;BME280;46212;50.258;19.062;2023-02-22T02:53:08;98509.53;;;2.47;94.54
53340;BME280;46212;50.258;19.062;2023-02-22T02:55:35;98506.41;;;2.48;94.66
53340;BME280;46212;50.258;19.062;2023-02-22T02:58:03;98499.88;;;2.39;94.92
53340;BME280;46212;50.258;19.062;2023-02-22T03:00:32;98491.69;;;2.39;94.89
53340;BME280;46212;50.258;19.062;2023-02-22T03:03:35;98516.50;;;2.51;94.49
53340;BME280;46212;50.258;19.062;2023-02-22T03:09:02;98493.06;;;2.57;93.72
53340;BME280;46212;50.258;19.062;2023-02-22T03:11:36;98519.91;;;2.62;93.09
53340;BME280;46212;50.258;19.062;2023-02-22T03:14:20;98515.38;;;2.45;93.72
53340;BME280;46212;50.258;19.062;2023-02-22T03:19:30;98517.59;;;2.17;95.10
53340;BME280;46212;50.258;19.062;2023-02-22T03:22:15;98509.44;;;2.13;95.86
53340;BME280;46212;50.258;19.062;2023-02-22T03:24:53;98511.34;;;2.16;95.89
53340;BME280;46212;50.258;19.062;2023-02-22T03:27:32;98517.81;;;2.36;95.51
53340;BME280;46212;50.258;19.062;2023-02-22T03:30:06;98515.88;;;2.37;94.79
53340;BME280;46212;50.258;19.062;2023-02-22T03:32:37;98518.25;;;2.31;94.47
53340;BME280;46212;50.258;19.062;2023-02-22T03:35:15;98518.19;;;2.35;94.17
53340;BME280;46212;50.258;19.062;2023-02-22T03:37:45;98507.03;;;2.22;94.30
53340;BME280;46212;50.258;19.062;2023-02-22T03:40:22;98522.44;;;2.39;93.52
53340;BME280;46212;50.258;19.062;2023-02-22T03:42:56;98526.06;;;2.26;93.35
53340;BME280;46212;50.258;19.062;2023-02-22T03:45:24;98521.38;;;2.30;93.44
53340;BME280;46212;50.258;19.062;2023-02-22T03:48:01;98507.59;;;2.03;93.24
53340;BME280;46212;50.258;19.062;2023-02-22T03:50:34;98515.34;;;2.04;93.09
53340;BME280;46212;50.258;19.062;2023-02-22T03:53:01;98529.78;;;2.01;93.25
53340;BME280;46212;50.258;19.062;2023-02-22T03:55:27;98503.81;;;1.86;94.22
53340;BME280;46212;50.258;19.062;2023-02-22T03:58:06;98529.63;;;1.68;94.67
53340;BME280;46212;50.258;19.062;2023-02-22T04:00:34;98515.75;;;1.44;96.45
53340;BME280;46212;50.258;19.062;2023-02-22T04:03:03;98528.94;;;1.46;97.41
53340;BME280;46212;50.258;19.062;2023-02-22T04:05:28;98539.47;;;1.40;98.10
53340;BME280;46212;50.258;19.062;2023-02-22T04:07:55;98508.44;;;1.31;98.49
53340;BME280;46212;50.258;19.062;2023-02-22T04:10:21;98529.00;;;1.35;98.57
53340;BME280;46212;50.258;19.062;2023-02-22T04:12:47;98527.06;;;1.39;99.04
53340;BME280;46212;50.258;19.062;2023-02-22T04:15:19;98513.47;;;1.36;98.65
53340;BME280;46212;50.258;19.062;2023-02-22T04:17:45;98500.69;;;1.26;98.61
53340;BME280;46212;50.258;19.062;2023-02-22T04:20:10;98531.72;;;1.42;98.89
53340;BME280;46212;50.258;19.062;2023-02-22T04:22:38;98532.81;;;1.52;98.64
53340;BME280;46212;50.258;19.062;2023-02-22T04:25:04;98536.25;;;1.63;98.71
53340;BME280;46212;50.258;19.062;2023-02-22T04:27:30;98531.94;;;1.69;98.73
53340;BME280;46212;50.258;19.062;2023-02-22T04:29:55;98530.31;;;1.79;98.58
53340;BME280;46212;50.258;19.062;2023-02-22T04:32:21;98523.28;;;1.85;97.90
53340;BME280;46212;50.258;19.062;2023-02-22T04:34:46;98517.94;;;1.71;98.29
53340;BME280;46212;50.258;19.062;2023-02-22T04:37:11;98533.09;;;1.68;98.69
53340;BME280;46212;50.258;19.062;2023-02-22T04:39:37;98500.09;;;1.63;99.07
53340;BME280;46212;50.258;19.062;2023-02-22T04:42:02;98530.63;;;1.91;99.05
53340;BME280;46212;50.258;19.062;2023-02-22T04:44:29;98521.31;;;1.85;98.53
53340;BME280;46212;50.258;19.062;2023-02-22T04:46:55;98520.88;;;1.94;98.41
53340;BME280;46212;50.258;19.062;2023-02-22T04:49:21;98517.03;;;1.88;98.72
53340;BME280;46212;50.258;19.062;2023-02-22T04:51:47;98503.38;;;1.91;98.03
53340;BME280;46212;50.258;19.062;2023-02-22T04:54:12;98514.72;;;1.86;98.20
53340;BME280;46212;50.258;19.062;2023-02-22T04:56:38;98509.16;;;1.97;98.18
53340;BME280;46212;50.258;19.062;2023-02-22T04:59:03;98507.97;;;2.01;97.62
53340;BME280;46212;50.258;19.062;2023-02-22T05:01:34;98528.16;;;2.07;97.49
53340;BME280;46212;50.258;19.062;2023-02-22T05:04:04;98527.50;;;1.93;98.51
53340;BME280;46212;50.258;19.062;2023-02-22T05:06:30;98510.00;;;1.90;98.45
53340;BME280;46212;50.258;19.062;2023-02-22T05:08:56;98503.38;;;1.95;98.39
53340;BME280;46212;50.258;19.062;2023-02-22T05:11:21;98509.13;;;2.04;98.38
53340;BME280;46212;50.258;19.062;2023-02-22T05:13:47;98507.97;;;2.05;98.23
53340;BME280;46212;50.258;19.062;2023-02-22T05:16:13;98524.88;;;2.30;98.11
53340;BME280;46212;50.258;19.062;2023-02-22T05:18:38;98512.09;;;2.20;97.18
53340;BME280;46212;50.258;19.062;2023-02-22T05:21:04;98531.53;;;2.22;97.46
53340;BME280;46212;50.258;19.062;2023-02-22T05:23:29;98532.72;;;2.25;97.73
53340;BME280;46212;50.258;19.062;2023-02-22T05:25:55;98526.88;;;2.23;97.56
53340;BME280;46212;50.258;19.062;2023-02-22T05:28:20;98536.84;;;2.43;97.63
53340;BME280;46212;50.258;19.062;2023-02-22T05:30:46;98521.22;;;2.47;96.62
53340;BME280;46212;50.258;19.062;2023-02-22T05:33:11;98541.47;;;2.46;97.05
53340;BME280;46212;50.258;19.062;2023-02-22T05:35:37;98525.59;;;2.38;97.15
53340;BME280;46212;50.258;19.062;2023-02-22T05:38:03;98526.03;;;2.29;97.33
53340;BME280;46212;50.258;19.062;2023-02-22T05:40:30;98539.25;;;2.34;97.69
53340;BME280;46212;50.258;19.062;2023-02-22T05:42:55;98546.69;;;2.71;96.91
53340;BME280;46212;50.258;19.062;2023-02-22T05:45:23;98525.09;;;2.50;96.15
53340;BME280;46212;50.258;19.062;2023-02-22T05:47:49;98550.28;;;2.61;96.23
53340;BME280;46212;50.258;19.062;2023-02-22T05:50:16;98553.78;;;2.61;96.12
53340;BME280;46212;50.258;19.062;2023-02-22T05:52:42;98549.50;;;2.60;96.55
53340;BME280;46212;50.258;19.062;2023-02-22T05:55:09;98553.00;;;2.61;96.86
53340;BME280;46212;50.258;19.062;2023-02-22T05:57:34;98537.47;;;2.58;96.51
53340;BME280;46212;50.258;19.062;2023-02-22T06:00:00;98544.44;;;2.62;96.60
53340;BME280;46212;50.258;19.062;2023-02-22T06:02:26;98552.75;;;2.86;96.32
53340;BME280;46212;50.258;19.062;2023-02-22T06:04:51;98547.97;;;2.97;95.56
53340;BME280;46212;50.258;19.062;2023-02-22T06:07:17;98558.31;;;2.79;95.54
53340;BME280;46212;50.258;19.062;2023-02-22T06:09:42;98562.03;;;2.92;95.52
53340;BME280;46212;50.258;19.062;2023-02-22T06:12:08;98563.56;;;2.96;95.21
53340;BME280;46212;50.258;19.062;2023-02-22T06:14:34;98557.47;;;2.85;95.39
53340;BME280;46212;50.258;19.062;2023-02-22T06:17:00;98573.56;;;3.10;95.43
53340;BME280;46212;50.258;19.062;2023-02-22T06:19:26;98575.66;;;3.33;94.77
53340;BME280;46212;50.258;19.062;2023-02-22T06:21:54;98553.16;;;3.21;94.29
53340;BME280;46212;50.258;19.062;2023-02-22T06:24:20;98574.41;;;3.37;93.91
53340;BME280;46212;50.258;19.062;2023-02-22T06:26:53;98579.66;;;3.55;93.10
53340;BME280;46212;50.258;19.062;2023-02-22T06:29:19;98584.69;;;3.56;92.70
53340;BME280;46212;50.258;19.062;2023-02-22T06:31:44;98579.75;;;3.48;93.08
53340;BME280;46212;50.258;19.062;2023-02-22T06:34:10;98596.94;;;3.45;93.49
53340;BME280;46212;50.258;19.062;2023-02-22T06:36:35;98569.72;;;3.38;93.54
53340;BME280;46212;50.258;19.062;2023-02-22T06:39:01;98580.31;;;3.32;93.65
53340;BME280;46212;50.258;19.062;2023-02-22T06:41:26;98600.53;;;3.68;93.59
53340;BME280;46212;50.258;19.062;2023-02-22T06:43:52;98590.25;;;3.49;93.22
53340;BME280;46212;50.258;19.062;2023-02-22T06:46:17;98598.81;;;3.51;93.27
53340;BME280;46212;50.258;19.062;2023-02-22T06:48:43;98592.97;;;3.49;92.96
53340;BME280;46212;50.258;19.062;2023-02-22T06:51:09;98606.63;;;3.49;93.67
53340;BME280;46212;50.258;19.062;2023-02-22T06:53:35;98602.59;;;3.61;93.44
53340;BME280;46212;50.258;19.062;2023-02-22T06:56:01;98604.19;;;3.89;93.40
53340;BME280;46212;50.258;19.062;2023-02-22T06:58:27;98619.16;;;4.07;92.31
53340;BME280;46212;50.258;19.062;2023-02-22T07:00:53;98611.94;;;3.90;92.33
53340;BME280;46212;50.258;19.062;2023-02-22T07:03:19;98599.09;;;3.60;92.87
53340;BME280;46212;50.258;19.062;2023-02-22T07:05:44;98609.88;;;4.01;92.45
53340;BME280;46212;50.258;19.062;2023-02-22T07:08:10;98626.78;;;4.19;91.41
53340;BME280;46212;50.258;19.062;2023-02-22T07:10:37;98599.50;;;4.16;90.90
53340;BME280;46212;50.258;19.062;2023-02-22T07:13:04;98606.47;;;4.20;90.81
53340;BME280;46212;50.258;19.062;2023-02-22T07:15:30;98624.25;;;4.32;91.28
53340;BME280;46212;50.258;19.062;2023-02-22T07:17:55;98621.16;;;4.30;91.17
53340;BME280;46212;50.258;19.062;2023-02-22T07:20:22;98607.53;;;4.26;91.00
53340;BME280;46212;50.258;19.062;2023-02-22T07:22:49;98611.31;;;4.36;90.72
53340;BME280;46212;50.258;19.062;2023-02-22T07:25:14;98597.16;;;4.41;90.60
53340;BME280;46212;50.258;19.062;2023-02-22T07:27:41;98632.41;;;4.36;90.80
53340;BME280;46212;50.258;19.062;2023-02-22T07:30:27;98624.75;;;4.73;90.04
53340;BME280;46212;50.258;19.062;2023-02-22T07:32:58;98612.34;;;4.69;89.16
53340;BME280;46212;50.258;19.062;2023-02-22T07:35:45;98613.25;;;4.62;89.35
53340;BME280;46212;50.258;19.062;2023-02-22T07:38:14;98612.81;;;4.87;88.67
53340;BME280;46212;50.258;19.062;2023-02-22T07:40:41;98625.59;;;4.94;88.34
53340;BME280;46212;50.258;19.062;2023-02-22T07:45:34;98630.66;;;4.95;87.82
53340;BME280;46212;50.258;19.062;2023-02-22T07:48:01;98621.56;;;4.78;88.71
53340;BME280;46212;50.258;19.062;2023-02-22T07:50:29;98636.13;;;4.95;88.37
53340;BME280;46212;50.258;19.062;2023-02-22T07:52:56;98614.38;;;5.08;87.52
53340;BME280;46212;50.258;19.062;2023-02-22T07:55:25;98624.03;;;5.16;87.29
53340;BME280;46212;50.258;19.062;2023-02-22T07:57:53;98631.75;;;5.21;87.12
53340;BME280;46212;50.258;19.062;2023-02-22T08:00:24;98624.22;;;5.05;87.54
53340;BME280;46212;50.258;19.062;2023-02-22T08:02:50;98621.75;;;4.91;88.53
53340;BME280;46212;50.258;19.062;2023-02-22T08:05:16;98635.84;;;5.32;87.77
53340;BME280;46212;50.258;19.062;2023-02-22T08:07:41;98626.09;;;5.51;87.21
53340;BME280;46212;50.258;19.062;2023-02-22T08:10:08;98628.28;;;5.60;85.98
53340;BME280;46212;50.258;19.062;2023-02-22T08:12:34;98609.03;;;5.44;85.26
53340;BME280;46212;50.258;19.062;2023-02-22T08:15:02;98629.69;;;5.48;85.26
53340;BME280;46212;50.258;19.062;2023-02-22T08:17:27;98635.09;;;5.32;86.11
53340;BME280;46212;50.258;19.062;2023-02-22T08:19:54;98629.41;;;5.62;85.78
53340;BME280;46212;50.258;19.062;2023-02-22T08:22:19;98634.94;;;5.39;86.08
53340;BME280;46212;50.258;19.062;2023-02-22T08:24:44;98605.31;;;5.34;86.12
53340;BME280;46212;50.258;19.062;2023-02-22T08:27:10;98635.16;;;5.48;85.42
53340;BME280;46212;50.258;19.062;2023-02-22T08:29:35;98618.09;;;5.41;85.60
53340;BME280;46212;50.258;19.062;2023-02-22T08:32:01;98616.06;;;5.45;85.44
53340;BME280;46212;50.258;19.062;2023-02-22T08:34:27;98624.31;;;5.80;85.30
53340;BME280;46212;50.258;19.062;2023-02-22T08:36:52;98620.69;;;5.48;85.12
53340;BME280;46212;50.258;19.062;2023-02-22T08:39:18;98613.38;;;5.41;85.09
53340;BME280;46212;50.258;19.062;2023-02-22T08:41:44;98621.31;;;5.55;85.26
53340;BME280;46212;50.258;19.062;2023-02-22T08:44:09;98645.34;;;5.67;84.43
53340;BME280;46212;50.258;19.062;2023-02-22T08:46:34;98629.06;;;5.80;82.76
53340;BME280;46212;50.258;19.062;2023-02-22T08:49:00;98651.28;;;5.85;80.09
53340;BME280;46212;50.258;19.062;2023-02-22T08:51:27;98639.84;;;6.07;80.46
53340;BME280;46212;50.258;19.062;2023-02-22T08:53:52;98639.50;;;5.85;80.10
53340;BME280;46212;50.258;19.062;2023-02-22T08:56:19;98630.25;;;5.79;78.44
53340;BME280;46212;50.258;19.062;2023-02-22T08:58:44;98643.22;;;6.14;77.95
53340;BME280;46212;50.258;19.062;2023-02-22T09:01:10;98641.44;;;6.24;76.67
53340;BME280;46212;50.258;19.062;2023-02-22T09:03:35;98643.44;;;6.39;76.34
53340;BME280;46212;50.258;19.062;2023-02-22T09:06:03;98646.44;;;6.45;76.84
53340;BME280;46212;50.258;19.062;2023-02-22T09:08:28;98635.72;;;6.67;77.03
53340;BME280;46212;50.258;19.062;2023-02-22T09:10:54;98655.41;;;6.81;75.64
53340;BME280;46212;50.258;19.062;2023-02-22T09:13:19;98635.66;;;6.86;74.75
53340;BME280;46212;50.258;19.062;2023-02-22T09:15:45;98640.03;;;6.68;74.79
53340;BME280;46212;50.258;19.062;2023-02-22T09:18:12;98657.59;;;7.03;74.33
53340;BME280;46212;50.258;19.062;2023-02-22T09:20:39;98658.47;;;7.00;74.37
53340;BME280;46212;50.258;19.062;2023-02-22T09:23:06;98657.44;;;7.10;73.25
53340;BME280;46212;50.258;19.062;2023-02-22T09:25:33;98655.25;;;7.17;72.72
53340;BME280;46212;50.258;19.062;2023-02-22T09:28:00;98642.97;;;7.38;71.93
53340;BME280;46212;50.258;19.062;2023-02-22T09:30:27;98658.19;;;7.55;71.54
53340;BME280;46212;50.258;19.062;2023-02-22T09:33:19;98661.59;;;7.30;70.79
53340;BME280;46212;50.258;19.062;2023-02-22T09:35:44;98650.25;;;7.44;70.66
53340;BME280;46212;50.258;19.062;2023-02-22T09:38:15;98651.59;;;7.94;69.38
53340;BME280;46212;50.258;19.062;2023-02-22T09:40:45;98640.81;;;7.99;69.37
53340;BME280;46212;50.258;19.062;2023-02-22T09:43:20;98635.75;;;7.85;68.93
53340;BME280;46212;50.258;19.062;2023-02-22T09:46:04;98634.34;;;8.19;68.49
53340;BME280;46212;50.258;19.062;2023-02-22T09:48:42;98648.50;;;8.46;67.49
53340;BME280;46212;50.258;19.062;2023-02-22T09:51:14;98650.78;;;8.60;66.62
53340;BME280;46212;50.258;19.062;2023-02-22T09:53:44;98653.91;;;8.62;67.18
53340;BME280;46212;50.258;19.062;2023-02-22T09:56:13;98651.34;;;8.80;65.72
53340;BME280;46212;50.258;19.062;2023-02-22T09:59:01;98619.19;;;8.65;60.69
53340;BME280;46212;50.258;19.062;2023-02-22T10:04:16;98647.00;;;8.92;59.68
53340;BME280;46212;50.258;19.062;2023-02-22T10:09:31;98647.19;;;7.96;62.76
53340;BME280;46212;50.258;19.062;2023-02-22T10:12:07;98644.97;;;8.58;59.76
53340;BME280;46212;50.258;19.062;2023-02-22T10:15:03;98649.59;;;8.74;59.03
53340;BME280;46212;50.258;19.062;2023-02-22T10:20:56;98639.16;;;7.89;62.37
53340;BME280;46212;50.258;19.062;2023-02-22T10:23:35;98638.38;;;8.68;59.60
53340;BME280;46212;50.258;19.062;2023-02-22T10:26:19;98626.44;;;8.84;58.75
53340;BME280;46212;50.258;19.062;2023-02-22T10:28:53;98638.97;;;8.85;58.89
53340;BME280;46212;50.258;19.062;2023-02-22T10:31:33;98648.22;;;9.03;58.78
53340;BME280;46212;50.258;19.062;2023-02-22T10:34:01;98636.16;;;9.10;59.38
53340;BME280;46212;50.258;19.062;2023-02-22T10:36:30;98637.13;;;9.29;59.24
53340;BME280;46212;50.258;19.062;2023-02-22T10:38:59;98634.78;;;8.93;60.06
53340;BME280;46212;50.258;19.062;2023-02-22T10:41:30;98641.91;;;9.16;60.31
53340;BME280;46212;50.258;19.062;2023-02-22T10:43:56;98621.78;;;8.93;59.85
53340;BME280;46212;50.258;19.062;2023-02-22T10:46:22;98626.88;;;8.82;59.94
53340;BME280;46212;50.258;19.062;2023-02-22T10:48:51;98635.00;;;8.98;59.50
53340;BME280;46212;50.258;19.062;2023-02-22T10:51:19;98630.69;;;8.97;59.78
53340;BME280;46212;50.258;19.062;2023-02-22T10:53:55;98614.75;;;8.92;59.82
53340;BME280;46212;50.258;19.062;2023-02-22T10:56:23;98632.44;;;9.04;60.03
53340;BME280;46212;50.258;19.062;2023-02-22T10:59:02;98625.94;;;9.45;59.09
53340;BME280;46212;50.258;19.062;2023-02-22T11:04:16;98623.91;;;8.89;56.25
53340;BME280;46212;50.258;19.062;2023-02-22T11:06:44;98636.56;;;8.87;54.76
53340;BME280;46212;50.258;19.062;2023-02-22T11:09:18;98620.09;;;8.49;56.01
53340;BME280;46212;50.258;19.062;2023-02-22T11:11:47;98608.75;;;8.34;56.88
53340;BME280;46212;50.258;19.062;2023-02-22T11:14:27;98625.34;;;8.81;56.73
53340;BME280;46212;50.258;19.062;2023-02-22T11:16:53;98627.88;;;8.63;57.63
53340;BME280;46212;50.258;19.062;2023-02-22T11:19:23;98607.09;;;8.49;57.89
53340;BME280;46212;50.258;19.062;2023-02-22T11:21:58;98609.81;;;7.99;58.32
53340;BME280;46212;50.258;19.062;2023-02-22T11:24:43;98616.00;;;8.41;57.85
53340;BME280;46212;50.258;19.062;2023-02-22T11:27:21;98613.34;;;8.50;57.91
53340;BME280;46212;50.258;19.062;2023-02-22T11:29:48;98589.59;;;8.31;57.98
53340;BME280;46212;50.258;19.062;2023-02-22T11:32:18;98609.72;;;8.53;57.19
53340;BME280;46212;50.258;19.062;2023-02-22T11:34:47;98583.22;;;8.34;58.15
53340;BME280;46212;50.258;19.062;2023-02-22T11:40:14;98615.47;;;8.59;58.26
53340;BME280;46212;50.258;19.062;2023-02-22T11:43:06;98604.22;;;8.78;57.32
53340;BME280;46212;50.258;19.062;2023-02-22T11:45:33;98614.22;;;8.60;57.86
53340;BME280;46212;50.258;19.062;2023-02-22T11:48:01;98595.38;;;8.83;57.78
53340;BME280;46212;50.258;19.062;2023-02-22T11:53:04;98620.28;;;8.80;58.01
53340;BME280;46212;50.258;19.062;2023-02-22T11:55:46;98608.31;;;9.08;57.69
53340;BME280;46212;50.258;19.062;2023-02-22T11:58:42;98618.19;;;9.18;54.61
53340;BME280;46212;50.258;19.062;2023-02-22T12:09:53;98607.53;;;8.61;56.17
53340;BME280;46212;50.258;19.062;2023-02-22T12:12:30;98609.97;;;9.05;55.54
53340;BME280;46212;50.258;19.062;2023-02-22T12:17:56;98607.25;;;8.93;56.44
53340;BME280;46212;50.258;19.062;2023-02-22T12:26:02;98596.47;;;9.20;54.88
53340;BME280;46212;50.258;19.062;2023-02-22T12:28:33;98611.56;;;8.94;54.68
53340;BME280;46212;50.258;19.062;2023-02-22T12:31:22;98610.69;;;8.84;55.21
53340;BME280;46212;50.258;19.062;2023-02-22T12:33:57;98607.97;;;8.72;55.45
53340;BME280;46212;50.258;19.062;2023-02-22T12:36:33;98596.53;;;8.48;54.39
53340;BME280;46212;50.258;19.062;2023-02-22T12:39:03;98609.56;;;8.94;55.55
53340;BME280;46212;50.258;19.062;2023-02-22T12:41:46;98601.69;;;9.40;52.61
53340;BME280;46212;50.258;19.062;2023-02-22T12:44:23;98581.69;;;9.27;52.93
53340;BME280;46212;50.258;19.062;2023-02-22T12:46:52;98591.88;;;9.39;53.09
53340;BME280;46212;50.258;19.062;2023-02-22T12:57:39;98580.53;;;10.11;49.64
53340;BME280;46212;50.258;19.062;2023-02-22T13:00:20;98587.53;;;10.03;49.46
53340;BME280;46212;50.258;19.062;2023-02-22T13:03:00;98588.84;;;9.89;50.33
53340;BME280;46212;50.258;19.062;2023-02-22T13:05:32;98581.00;;;9.35;51.19
53340;BME280;46212;50.258;19.062;2023-02-22T13:19:20;98585.69;;;9.47;50.73
53340;BME280;46212;50.258;19.062;2023-02-22T13:22:25;98590.59;;;9.31;51.65
53340;BME280;46212;50.258;19.062;2023-02-22T13:27:22;98586.56;;;9.44;50.40
53340;BME280;46212;50.258;19.062;2023-02-22T13:29:56;98587.34;;;9.45;50.65
53340;BME280;46212;50.258;19.062;2023-02-22T13:32:49;98589.69;;;9.55;49.77
53340;BME280;46212;50.258;19.062;2023-02-22T13:35:24;98583.63;;;9.60;50.81
53340;BME280;46212;50.258;19.062;2023-02-22T13:38:05;98589.25;;;9.57;51.09
53340;BME280;46212;50.258;19.062;2023-02-22T13:40:46;98591.44;;;9.62;50.60
53340;BME280;46212;50.258;19.062;2023-02-22T13:46:22;98587.53;;;9.29;51.22
53340;BME280;46212;50.258;19.062;2023-02-22T13:56:41;98572.03;;;9.44;52.22
53340;BME280;46212;50.258;19.062;2023-02-22T13:59:30;98569.91;;;9.48;52.75
53340;BME280;46212;50.258;19.062;2023-02-22T14:01:57;98585.09;;;9.52;52.92
53340;BME280;46212;50.258;19.062;2023-02-22T14:09:52;98584.47;;;9.70;53.48
53340;BME280;46212;50.258;19.062;2023-02-22T14:17:36;98586.09;;;9.68;52.70
53340;BME280;46212;50.258;19.062;2023-02-22T14:20:33;98577.34;;;9.60;52.63
53340;BME280;46212;50.258;19.062;2023-02-22T14:23:35;98580.78;;;9.51;52.72
53340;BME280;46212;50.258;19.062;2023-02-22T14:26:33;98572.84;;;9.32;53.53
53340;BME280;46212;50.258;19.062;2023-02-22T14:31:27;98582.34;;;9.52;52.95
53340;BME280;46212;50.258;19.062;2023-02-22T14:34:00;98573.81;;;9.38;53.24
53340;BME280;46212;50.258;19.062;2023-02-22T14:38:55;98582.63;;;9.33;53.79
53340;BME280;46212;50.258;19.062;2023-02-22T14:41:26;98552.78;;;9.10;54.26
53340;BME280;46212;50.258;19.062;2023-02-22T14:43:54;98585.97;;;9.06;53.61
53340;BME280;46212;50.258;19.062;2023-02-22T14:46:22;98584.94;;;9.13;53.11
53340;BME280;46212;50.258;19.062;2023-02-22T14:48:52;98567.56;;;9.03;54.29
53340;BME280;46212;50.258;19.062;2023-02-22T14:51:26;98562.72;;;8.60;55.65
53340;BME280;46212;50.258;19.062;2023-02-22T14:54:09;98592.81;;;8.89;55.39
53340;BME280;46212;50.258;19.062;2023-02-22T14:56:50;98586.66;;;8.85;55.23
53340;BME280;46212;50.258;19.062;2023-02-22T15:01:43;98592.97;;;8.73;55.58
53340;BME280;46212;50.258;19.062;2023-02-22T15:04:29;98590.31;;;8.69;55.05
53340;BME280;46212;50.258;19.062;2023-02-22T15:06:58;98582.63;;;8.64;55.51
53340;BME280;46212;50.258;19.062;2023-02-22T15:09:26;98587.72;;;8.53;55.60
53340;BME280;46212;50.258;19.062;2023-02-22T15:14:24;98585.72;;;8.66;55.71